Etusivu
METAR-TAF:

METAR-TAF

Lentoasemat :

Kish, Iran

Leveyspiiri: 26-31-36N, Pituuspiiri: 053-58-54E, korkeus merenpinnasta: 30 m

Tämänhetkinen sää

Tämä raportti tehtiin 57 minuuttia sitten, kello 10.00 UTC
Tuuli 14 kn lännestä/luoteesta puuskistuen 26 kn:hen
Lämpötila 24°C
Kosteus 61%
Ilmanpaine 1011 hPa
Näkyvyys: 3000 m
hiekkaa

METAR: OIBK 261000Z 30014G26KT 3000 SA NSC 24/16 Q1011 TEMPO 32024KT

Aika: 14:27 (10:57 UTC)

Sääennuste

Tämä raportti tehtiin 5 tuntia ja 7 minuuttia sitten, kello 05.50 UTC
Ennuste voimassa 26. päivästä klo 06 UTC - 27. päivään klo 12 UTC
Tuuli 14 kn idästä/kaakosta
Näkyvyys: 6000 m
Muutamia pilviä 6000 ft:n korkeudessa
Tulossa
26. päivästä klo 08 UTC - 26. päivään klo 10 UTC
Tuuli 20 kn lännestä
Ajoittain
26. päivästä klo 10 UTC - 26. päivään klo 16 UTC
Tuuli 24 kn lounaasta puuskistuen 34 kn:hen
Näkyvyys: 4000 m
hiekkaa

TAF: OIBK 260550Z 2606/2712 11014KT 6000 FEW060 BECMG 2608/2610 28020KT TEMPO 2610/2616 22024G34KT 4000 SA

Säähavainnot ja -ennusteet yli 4000 lentoasemalta (METAR- ja TAF-raportit).

Käytössä olevat sääasemat on merkitty karttaan keltaisilla ja punaisilla pisteillä.

Aseta hiiri pisteen päälle nähdäksesi sääaseman nimen.

Klikkaa sitten nähdäksesi säähavainnot ja -ennusteet.

Kartan vaihtaminen: klikkaa mustalla rastilla varustettuja vihreitä pisteitä, niin voit zoomata sisään; viivalla varustettua vihreää pistettä, niin voit zoomata ulos tai vihreitä nuolia, niin pääset viereisille kartoille.


METAR-TAF: